地図

経路データ

SID SEASON NUMBER BASIN SUBBASIN NAME ISO_TIME NATURE LAT LON WMO_WIND WMO_PRES WMO_AGENCY TRACK_TYPE DIST2LAND LANDFALL IFLAG USA_AGENCY USA_ATCF_ID USA_LAT USA_LON USA_RECORD USA_STATUS USA_WIND USA_PRES USA_SSHS USA_R34_NE USA_R34_SE USA_R34_SW USA_R34_NW USA_R50_NE USA_R50_SE USA_R50_SW USA_R50_NW USA_R64_NE USA_R64_SE USA_R64_SW USA_R64_NW USA_POCI USA_ROCI USA_RMW USA_EYE TOKYO_LAT TOKYO_LON TOKYO_GRADE TOKYO_WIND TOKYO_PRES TOKYO_R50_DIR TOKYO_R50_LONG TOKYO_R50_SHORT TOKYO_R30_DIR TOKYO_R30_LONG TOKYO_R30_SHORT TOKYO_LAND CMA_LAT CMA_LON CMA_CAT CMA_WIND CMA_PRES HKO_LAT HKO_LON HKO_CAT HKO_WIND HKO_PRES NEWDELHI_LAT NEWDELHI_LON NEWDELHI_GRADE NEWDELHI_WIND NEWDELHI_PRES NEWDELHI_CI NEWDELHI_DP NEWDELHI_POCI REUNION_LAT REUNION_LON REUNION_TYPE REUNION_WIND REUNION_PRES REUNION_TNUM REUNION_CI REUNION_RMW REUNION_R34_NE REUNION_R34_SE REUNION_R34_SW REUNION_R34_NW REUNION_R50_NE REUNION_R50_SE REUNION_R50_SW REUNION_R50_NW REUNION_R64_NE REUNION_R64_SE REUNION_R64_SW REUNION_R64_NW BOM_LAT BOM_LON BOM_TYPE BOM_WIND BOM_PRES BOM_TNUM BOM_CI BOM_RMW BOM_R34_NE BOM_R34_SE BOM_R34_SW BOM_R34_NW BOM_R50_NE BOM_R50_SE BOM_R50_SW BOM_R50_NW BOM_R64_NE BOM_R64_SE BOM_R64_SW BOM_R64_NW BOM_ROCI BOM_POCI BOM_EYE BOM_POS_METHOD BOM_PRES_METHOD NADI_LAT NADI_LON NADI_CAT NADI_WIND NADI_PRES WELLINGTON_LAT WELLINGTON_LON WELLINGTON_WIND WELLINGTON_PRES DS824_LAT DS824_LON DS824_STAGE DS824_WIND DS824_PRES TD9636_LAT TD9636_LON TD9636_STAGE TD9636_WIND TD9636_PRES TD9635_LAT TD9635_LON TD9635_WIND TD9635_PRES TD9635_ROCI NEUMANN_LAT NEUMANN_LON NEUMANN_CLASS NEUMANN_WIND NEUMANN_PRES MLC_LAT MLC_LON MLC_CLASS MLC_WIND MLC_PRES USA_GUST BOM_GUST BOM_GUST_PER REUNION_GUST REUNION_GUST_PER USA_SEAHGT USA_SEARAD_NE USA_SEARAD_SE USA_SEARAD_SW USA_SEARAD_NW STORM_SPEED STORM_DIR
1932262N21265 1932 53 NA GM NOT_NAMED 1932-09-18 00:00:00 TS 20.8000 -95.0000 30 hurdat_atl main 177 177 O_____________ hurdat_atl AL081932 20.8000 -95.0000 TD 30 -1 9 31
1932262N21265 1932 53 NA GM NOT_NAMED 1932-09-18 03:00:00 TS 21.1951 -94.7428 main 229 229 P_____________ AL081932 21.1951 -94.7428 TD 32 -1 9 30
1932262N21265 1932 53 NA GM NOT_NAMED 1932-09-18 06:00:00 TS 21.6000 -94.5000 35 hurdat_atl main 274 274 O_____________ hurdat_atl AL081932 21.6000 -94.5000 TS 35 0 9 27
1932262N21265 1932 53 NA GM NOT_NAMED 1932-09-18 09:00:00 TS 22.0275 -94.2849 main 312 312 P_____________ AL081932 22.0275 -94.2849 TS 37 0 10 22
1932262N21265 1932 53 NA GM NOT_NAMED 1932-09-18 12:00:00 TS 22.5000 -94.1000 40 hurdat_atl main 344 344 O_____________ hurdat_atl AL081932 22.5000 -94.1000 TS 40 0 10 17
1932262N21265 1932 53 NA GM NOT_NAMED 1932-09-18 15:00:00 TS 23.0125 -93.9497 main 383 383 P_____________ AL081932 23.0125 -93.9497 TS 42 0 11 14
1932262N21265 1932 53 NA GM NOT_NAMED 1932-09-18 18:00:00 TS 23.6000 -93.8000 45 hurdat_atl main 405 385 O_____________ hurdat_atl AL081932 23.6000 -93.8000 TS 45 0 13 13
1932262N21265 1932 53 NA GM NOT_NAMED 1932-09-18 21:00:00 TS 24.2699 -93.6222 main 390 382 P_____________ AL081932 24.2699 -93.6222 TS 47 0 15 15
1932262N21265 1932 53 NA GM NOT_NAMED 1932-09-19 00:00:00 TS 25.0000 -93.4000 50 hurdat_atl main 387 384 O_____________ hurdat_atl AL081932 25.0000 -93.4000 TS 50 0 16 18
1932262N21265 1932 53 NA GM NOT_NAMED 1932-09-19 03:00:00 TS 25.7426 -93.1076 main 401 338 P_____________ AL081932 25.7426 -93.1076 TS 52 0 16 20
1932262N21265 1932 53 NA GM NOT_NAMED 1932-09-19 06:00:00 TS 26.5000 -92.8000 55 hurdat_atl main 338 257 O_____________ hurdat_atl AL081932 26.5000 -92.8000 TS 55 0 16 19
1932262N21265 1932 53 NA GM NOT_NAMED 1932-09-19 09:00:00 TS 27.2574 -92.5347 main 246 167 P_____________ AL081932 27.2574 -92.5347 TS 55 0 16 16
1932262N21265 1932 53 NA GM NOT_NAMED 1932-09-19 12:00:00 TS 28.0000 -92.3000 55 hurdat_atl main 167 91 O_____________ hurdat_atl AL081932 28.0000 -92.3000 TS 55 0 15 17
1932262N21265 1932 53 NA GM NOT_NAMED 1932-09-19 15:00:00 TS 28.7330 -92.0402 main 93 29 P_____________ AL081932 28.7330 -92.0402 TS 55 0 14 14
1932262N21265 1932 53 NA GM NOT_NAMED 1932-09-19 18:00:00 TS 29.4000 -91.9000 55 hurdat_atl main 29 11 O_____________ hurdat_atl AL081932 29.4000 -91.9000 TS 55 0 13 8
1932262N21265 1932 53 NA GM NOT_NAMED 1932-09-19 19:00:00 TS 29.6000 -91.9000 55 hurdat_atl main 11 0 O_____________ hurdat_atl AL081932 29.6000 -91.9000 L TS 55 0 14 6
1932262N21265 1932 53 NA NA NOT_NAMED 1932-09-19 21:00:00 TS 30.0767 -91.8259 main 0 0 P_____________ AL081932 30.0767 -91.8259 TS 48 0 17 14
1932262N21265 1932 53 NA NA NOT_NAMED 1932-09-20 00:00:00 TS 31.0000 -91.5000 40 hurdat_atl main 0 0 O_____________ hurdat_atl AL081932 31.0000 -91.5000 TS 40 0 22 20
1932262N21265 1932 53 NA NA NOT_NAMED 1932-09-20 03:00:00 TS 32.1259 -90.9603 main 0 0 P_____________ AL081932 32.1259 -90.9603 TS 37 0 26 25
1932262N21265 1932 53 NA NA NOT_NAMED 1932-09-20 06:00:00 TS 33.4000 -90.2000 35 hurdat_atl main 0 0 O_____________ hurdat_atl AL081932 33.4000 -90.2000 TS 35 0 30 28
1932262N21265 1932 53 NA NA NOT_NAMED 1932-09-20 09:00:00 TS 34.7612 -89.2466 main 0 0 P_____________ AL081932 34.7612 -89.2466 TS 32 -1 30 31
1932262N21265 1932 53 NA NA NOT_NAMED 1932-09-20 12:00:00 TS 36.0000 -88.3000 30 hurdat_atl main 0 0 O_____________ hurdat_atl AL081932 36.0000 -88.3000 TD 30 -1 26 31
1932262N21265 1932 53 NA NA NOT_NAMED 1932-09-20 15:00:00 TS 36.9414 -87.6145 main 0 0 P_____________ AL081932 36.9414 -87.6145 TD 27 -1 19 31
1932262N21265 1932 53 NA NA NOT_NAMED 1932-09-20 18:00:00 TS 37.6000 -87.1000 25 hurdat_atl main 0 0 O_____________ hurdat_atl AL081932 37.6000 -87.1000 TD 25 -1 13 34
1932262N21265 1932 53 NA NA NOT_NAMED 1932-09-20 21:00:00 TS 38.0393 -86.6830 main 0 0 P_____________ AL081932 38.0393 -86.6830 TD 22 -1 9 42
1932262N21265 1932 53 NA NA NOT_NAMED 1932-09-21 00:00:00 ET 38.3000 -86.3000 20 hurdat_atl main 0 0 O_____________ hurdat_atl AL081932 38.3000 -86.3000 EX 20 -4 8 53
1932262N21265 1932 53 NA NA NOT_NAMED 1932-09-21 03:00:00 ET 38.5446 -85.8373 main 0 0 P_____________ AL081932 38.5446 -85.8373 EX 20 -4 9 63
1932262N21265 1932 53 NA NA NOT_NAMED 1932-09-21 06:00:00 ET 38.7000 -85.3000 20 hurdat_atl main 0 0 O_____________ hurdat_atl AL081932 38.7000 -85.3000 EX 20 -4 9 75
1932262N21265 1932 53 NA NA NOT_NAMED 1932-09-21 09:00:00 ET 38.7797 -84.6871 main 0 0 P_____________ AL081932 38.7797 -84.6871 EX 20 -4 10 84
1932262N21265 1932 53 NA NA NOT_NAMED 1932-09-21 12:00:00 ET 38.8000 -84.0000 20 hurdat_atl main 0 0 O_____________ hurdat_atl AL081932 38.8000 -84.0000 EX 20 -4 11 89
1932262N21265 1932 53 NA NA NOT_NAMED 1932-09-21 15:00:00 ET 38.8035 -83.2626 main 0 0 P_____________ AL081932 38.8035 -83.2626 EX 20 -4 12 90
1932262N21265 1932 53 NA NA NOT_NAMED 1932-09-21 18:00:00 ET 38.8000 -82.5000 20 hurdat_atl main 0 O_____________ hurdat_atl AL081932 38.8000 -82.5000 EX 20 -4 12 90

IBTrACS Databaseについて

本データベースは、米国NOAAが公開する1842年以降の世界の熱帯低気圧のベストトラックデータアーカイブInternational Best Track Archive for Climate Stewardship (IBTrACS)を、ウェブで閲覧しやすい形式に変換したものです。

最終更新日:2021-12-03